Hlavní strana
METAR-TAF:

METAR-TAF

Letiště :

Bardufoss, Norsko

zeměpisná šířka: 69-04N, zeměpisná délka: 018-32E, výška: 7 m

Aktuální stav počasí

Zpráva byla vytvořena před 31 minutami, v 03:50 UTC
Bezvětří
Teplota -16°C
Vlhkost vzduchu 84%
Tlak 1020 hPa
Viditelnost 10 km a více

METAR: ENDU 180350Z AUTO 00000KT 9999 OVC096/// M16/M18 Q1020 RMK WIND 1100FT 16008KT WIND 2200FT 16015KT

Čas: 05:21 (04:21 UTC)

Předpověď počasí

Předpověď platná od 18 v 00 UTC do 18 v 24 UTC
vítr z různých směrů 3 kt
Viditelnost 10 km a více
Skoro jasno ve výšce 4000 ft
Polojasno ve výšce 13000 ft

TAF: ENDU 1800/1824 VRB03KT 9999 FEW040 SCT130

Stav a předpovědi počasí z více než 4 000 letišť (zprávy METAR a TAF).

Červené a žluté tečky na mapě představují dostupné meteorologické stanice.

Když kurzor umístíte na tečku, zobrazí se název stanice.

Pak kliknutím zobrazíte stav a předpověď počasí.

Chcete-li změnit mapu, kliknutím na zelené tlačítko se znaménkem +mapu přiblížíte, kliknutím na zelené tlačítko se znaménkem – mapu oddálíte a kliknutím na zelené šipky přejdete na sousední mapy.


METAR-TAF: